sensor_id;sensor_type;location;lat;lon;timestamp;temperature;humidity
55365;DHT22;41245;45.384;20.390;2023-07-08T00:00:50;487.30;128.00
55365;DHT22;41245;45.384;20.390;2023-07-08T00:03:17;486.80;128.00
55365;DHT22;41245;45.384;20.390;2023-07-08T00:05:44;486.80;128.00
55365;DHT22;41245;45.384;20.390;2023-07-08T00:08:17;486.80;128.00
55365;DHT22;41245;45.384;20.390;2023-07-08T00:10:43;486.80;128.00
55365;DHT22;41245;45.384;20.390;2023-07-08T00:13:09;486.80;128.00
55365;DHT22;41245;45.384;20.390;2023-07-08T00:15:36;486.70;128.00
55365;DHT22;41245;45.384;20.390;2023-07-08T00:18:10;486.70;128.00
55365;DHT22;41245;45.384;20.390;2023-07-08T00:20:39;486.70;128.00
55365;DHT22;41245;45.384;20.390;2023-07-08T05:42:15;921.80;2304.00
55365;DHT22;41245;45.384;20.390;2023-07-08T05:44:41;921.90;2355.20
55365;DHT22;41245;45.384;20.390;2023-07-08T05:47:06;921.90;2201.60
55365;DHT22;41245;45.384;20.390;2023-07-08T05:49:32;922.30;2099.20
55365;DHT22;41245;45.384;20.390;2023-07-08T05:51:58;922.20;2380.80
55365;DHT22;41245;45.384;20.390;2023-07-08T05:54:24;947.20;2406.40
55365;DHT22;41245;45.384;20.390;2023-07-08T05:56:50;948.00;2432.00
55365;DHT22;41245;45.384;20.390;2023-07-08T05:59:16;947.20;2432.00
55365;DHT22;41245;45.384;20.390;2023-07-08T06:01:41;973.40;2432.00
55365;DHT22;41245;45.384;20.390;2023-07-08T06:04:07;973.10;2432.00
55365;DHT22;41245;45.384;20.390;2023-07-08T06:38:12;1024.40;2432.00
55365;DHT22;41245;45.384;20.390;2023-07-08T06:40:38;947.90;2432.00
55365;DHT22;41245;45.384;20.390;2023-07-08T06:43:04;896.90;2355.20
55365;DHT22;41245;45.384;20.390;2023-07-08T06:45:29;870.40;2252.80
55365;DHT22;41245;45.384;20.390;2023-07-08T06:47:55;819.30;1868.80
55365;DHT22;41245;45.384;20.390;2023-07-08T06:50:21;768.50;1561.60
55365;DHT22;41245;45.384;20.390;2023-07-08T06:52:46;742.80;1459.20
55365;DHT22;41245;45.384;20.390;2023-07-08T06:55:13;717.60;1356.80
55365;DHT22;41245;45.384;20.390;2023-07-08T06:57:39;717.00;1024.00
55365;DHT22;41245;45.384;20.390;2023-07-08T07:00:09;692.10;1049.60
55365;DHT22;41245;45.384;20.390;2023-07-08T07:02:35;692.10;1075.20
55365;DHT22;41245;45.384;20.390;2023-07-08T07:05:02;691.70;1100.80
55365;DHT22;41245;45.384;20.390;2023-07-08T07:07:29;691.60;1024.00
55365;DHT22;41245;45.384;20.390;2023-07-08T07:09:55;691.30;819.20
55365;DHT22;41245;45.384;20.390;2023-07-08T07:12:21;666.50;972.80
55365;DHT22;41245;45.384;20.390;2023-07-08T07:14:47;666.40;819.20
55365;DHT22;41245;45.384;20.390;2023-07-08T07:17:15;666.30;896.00
55365;DHT22;41245;45.384;20.390;2023-07-08T07:19:41;666.30;1049.60
55365;DHT22;41245;45.384;20.390;2023-07-08T07:22:07;666.20;998.40
55365;DHT22;41245;45.384;20.390;2023-07-08T07:24:32;666.10;998.40
55365;DHT22;41245;45.384;20.390;2023-07-08T07:26:58;665.90;998.40
55365;DHT22;41245;45.384;20.390;2023-07-08T07:29:24;666.00;972.80
55365;DHT22;41245;45.384;20.390;2023-07-08T07:31:50;665.90;998.40
55365;DHT22;41245;45.384;20.390;2023-07-08T07:34:17;666.10;768.00
55365;DHT22;41245;45.384;20.390;2023-07-08T07:36:43;666.10;793.60
55365;DHT22;41245;45.384;20.390;2023-07-08T07:39:08;666.20;768.00
55365;DHT22;41245;45.384;20.390;2023-07-08T07:41:34;666.10;793.60
55365;DHT22;41245;45.384;20.390;2023-07-08T07:44:00;666.20;819.20
55365;DHT22;41245;45.384;20.390;2023-07-08T07:46:25;665.70;819.20
55365;DHT22;41245;45.384;20.390;2023-07-08T07:48:51;666.00;819.20
55365;DHT22;41245;45.384;20.390;2023-07-08T07:51:17;666.00;1075.20
55365;DHT22;41245;45.384;20.390;2023-07-08T07:53:42;666.10;1024.00
55365;DHT22;41245;45.384;20.390;2023-07-08T07:56:08;666.30;972.80
55365;DHT22;41245;45.384;20.390;2023-07-08T07:58:34;666.30;998.40
55365;DHT22;41245;45.384;20.390;2023-07-08T08:01:00;666.40;1024.00
55365;DHT22;41245;45.384;20.390;2023-07-08T08:03:26;666.40;1024.00
55365;DHT22;41245;45.384;20.390;2023-07-08T08:05:51;691.20;870.40
55365;DHT22;41245;45.384;20.390;2023-07-08T08:08:19;691.20;844.80
55365;DHT22;41245;45.384;20.390;2023-07-08T08:10:44;691.20;793.60
55365;DHT22;41245;45.384;20.390;2023-07-08T08:13:11;691.40;972.80
55365;DHT22;41245;45.384;20.390;2023-07-08T08:15:37;691.40;921.60
55365;DHT22;41245;45.384;20.390;2023-07-08T08:18:03;691.60;896.00
55365;DHT22;41245;45.384;20.390;2023-07-08T08:20:29;691.40;998.40
55365;DHT22;41245;45.384;20.390;2023-07-08T08:22:55;691.40;998.40
55365;DHT22;41245;45.384;20.390;2023-07-08T08:25:22;691.60;1049.60
55365;DHT22;41245;45.384;20.390;2023-07-08T08:27:48;691.60;1049.60
55365;DHT22;41245;45.384;20.390;2023-07-08T08:30:15;691.80;998.40
55365;DHT22;41245;45.384;20.390;2023-07-08T08:32:41;691.40;972.80
55365;DHT22;41245;45.384;20.390;2023-07-08T08:35:07;691.70;921.60
55365;DHT22;41245;45.384;20.390;2023-07-08T08:37:33;691.50;998.40
55365;DHT22;41245;45.384;20.390;2023-07-08T08:39:59;691.80;896.00
55365;DHT22;41245;45.384;20.390;2023-07-08T08:42:42;691.80;972.80
55365;DHT22;41245;45.384;20.390;2023-07-08T08:45:17;691.80;1049.60
55365;DHT22;41245;45.384;20.390;2023-07-08T08:47:49;691.90;1075.20
55365;DHT22;41245;45.384;20.390;2023-07-08T08:50:32;692.10;1049.60
55365;DHT22;41245;45.384;20.390;2023-07-08T08:53:02;692.10;1100.80
55365;DHT22;41245;45.384;20.390;2023-07-08T08:55:30;692.10;1024.00
55365;DHT22;41245;45.384;20.390;2023-07-08T09:03:16;692.10;1024.00
55365;DHT22;41245;45.384;20.390;2023-07-08T09:05:46;716.90;1075.20
55365;DHT22;41245;45.384;20.390;2023-07-08T09:08:31;716.90;1075.20
55365;DHT22;41245;45.384;20.390;2023-07-08T09:11:09;716.80;1049.60
55365;DHT22;41245;45.384;20.390;2023-07-08T09:13:37;716.90;1024.00
55365;DHT22;41245;45.384;20.390;2023-07-08T09:19:47;717.30;1126.40
55365;DHT22;41245;45.384;20.390;2023-07-08T09:21:41;717.20;998.40
55365;DHT22;41245;45.384;20.390;2023-07-08T09:24:17;717.20;998.40
55365;DHT22;41245;45.384;20.390;2023-07-08T09:26:46;717.60;1049.60
55365;DHT22;41245;45.384;20.390;2023-07-08T09:29:12;717.50;1100.80
55365;DHT22;41245;45.384;20.390;2023-07-08T09:31:39;717.20;1126.40
55365;DHT22;41245;45.384;20.390;2023-07-08T09:34:23;717.10;1075.20
55365;DHT22;41245;45.384;20.390;2023-07-08T09:36:50;717.20;1049.60
55365;DHT22;41245;45.384;20.390;2023-07-08T09:39:18;717.30;1075.20
55365;DHT22;41245;45.384;20.390;2023-07-08T09:41:46;717.40;1126.40
55365;DHT22;41245;45.384;20.390;2023-07-08T09:46:41;717.60;1152.00
55365;DHT22;41245;45.384;20.390;2023-07-08T09:49:22;742.40;1152.00
55365;DHT22;41245;45.384;20.390;2023-07-08T09:51:50;717.50;1177.60
55365;DHT22;41245;45.384;20.390;2023-07-08T09:54:17;717.70;1075.20
55365;DHT22;41245;45.384;20.390;2023-07-08T09:56:52;717.60;1152.00
55365;DHT22;41245;45.384;20.390;2023-07-08T09:59:23;717.70;1177.60
55365;DHT22;41245;45.384;20.390;2023-07-08T10:01:51;717.70;1203.20
55365;DHT22;41245;45.384;20.390;2023-07-08T10:04:19;742.40;1203.20
55365;DHT22;41245;45.384;20.390;2023-07-08T10:06:46;742.70;1228.80
55365;DHT22;41245;45.384;20.390;2023-07-08T10:09:20;742.70;1152.00
55365;DHT22;41245;45.384;20.390;2023-07-08T10:14:35;742.80;1126.40
55365;DHT22;41245;45.384;20.390;2023-07-08T10:17:03;742.70;1331.20
55365;DHT22;41245;45.384;20.390;2023-07-08T10:19:28;742.80;1305.60
55365;DHT22;41245;45.384;20.390;2023-07-08T10:25:16;743.00;1356.80
55365;DHT22;41245;45.384;20.390;2023-07-08T10:28:12;743.00;1280.00
55365;DHT22;41245;45.384;20.390;2023-07-08T10:36:57;742.90;1356.80
55365;DHT22;41245;45.384;20.390;2023-07-08T10:42:27;742.70;1177.60
55365;DHT22;41245;45.384;20.390;2023-07-08T10:45:10;742.80;1254.40
55365;DHT22;41245;45.384;20.390;2023-07-08T10:50:21;742.80;1382.40
55365;DHT22;41245;45.384;20.390;2023-07-08T10:56:00;742.80;1382.40
55365;DHT22;41245;45.384;20.390;2023-07-08T11:06:15;742.90;1280.00
55365;DHT22;41245;45.384;20.390;2023-07-08T11:08:55;743.10;1331.20
55365;DHT22;41245;45.384;20.390;2023-07-08T11:11:41;743.00;1382.40
55365;DHT22;41245;45.384;20.390;2023-07-08T11:14:22;743.20;1254.40
55365;DHT22;41245;45.384;20.390;2023-07-08T11:17:12;743.20;1382.40
55365;DHT22;41245;45.384;20.390;2023-07-08T11:19:51;743.30;1331.20
55365;DHT22;41245;45.384;20.390;2023-07-08T11:22:19;743.30;1433.60
55365;DHT22;41245;45.384;20.390;2023-07-08T11:24:49;768.00;1433.60
55365;DHT22;41245;45.384;20.390;2023-07-08T11:27:24;768.00;1408.00
55365;DHT22;41245;45.384;20.390;2023-07-08T11:32:28;768.00;1459.20
55365;DHT22;41245;45.384;20.390;2023-07-08T11:34:56;768.10;1305.60
55365;DHT22;41245;45.384;20.390;2023-07-08T11:37:23;768.30;1382.40
55365;DHT22;41245;45.384;20.390;2023-07-08T11:42:48;768.10;1459.20
55365;DHT22;41245;45.384;20.390;2023-07-08T11:47:48;768.10;1484.80
55365;DHT22;41245;45.384;20.390;2023-07-08T11:50:31;768.10;1433.60
55365;DHT22;41245;45.384;20.390;2023-07-08T11:56:01;768.10;1484.80
55365;DHT22;41245;45.384;20.390;2023-07-08T11:58:50;768.20;1433.60
55365;DHT22;41245;45.384;20.390;2023-07-08T12:01:24;768.30;1510.40
55365;DHT22;41245;45.384;20.390;2023-07-08T12:04:27;768.10;1433.60
55365;DHT22;41245;45.384;20.390;2023-07-08T12:07:09;768.30;1561.60
55365;DHT22;41245;45.384;20.390;2023-07-08T12:09:40;768.30;1484.80
55365;DHT22;41245;45.384;20.390;2023-07-08T12:12:29;768.30;1561.60
55365;DHT22;41245;45.384;20.390;2023-07-08T12:15:15;768.30;1536.00
55365;DHT22;41245;45.384;20.390;2023-07-08T12:17:42;768.30;1510.40
55365;DHT22;41245;45.384;20.390;2023-07-08T12:20:34;768.40;1459.20
55365;DHT22;41245;45.384;20.390;2023-07-08T12:23:00;768.40;1561.60
55365;DHT22;41245;45.384;20.390;2023-07-08T12:25:35;768.30;1459.20
55365;DHT22;41245;45.384;20.390;2023-07-08T12:28:02;768.30;1587.20
55365;DHT22;41245;45.384;20.390;2023-07-08T12:30:30;768.30;1433.60
55365;DHT22;41245;45.384;20.390;2023-07-08T12:32:57;768.30;1408.00
55365;DHT22;41245;45.384;20.390;2023-07-08T12:35:29;768.10;1356.80
55365;DHT22;41245;45.384;20.390;2023-07-08T12:37:59;768.20;1459.20
55365;DHT22;41245;45.384;20.390;2023-07-08T12:40:27;768.20;1382.40
55365;DHT22;41245;45.384;20.390;2023-07-08T12:42:54;768.30;1382.40
55365;DHT22;41245;45.384;20.390;2023-07-08T12:45:22;768.30;1536.00
55365;DHT22;41245;45.384;20.390;2023-07-08T12:47:48;768.40;1536.00
55365;DHT22;41245;45.384;20.390;2023-07-08T12:50:15;768.30;1510.40
55365;DHT22;41245;45.384;20.390;2023-07-08T12:52:44;768.30;1510.40
55365;DHT22;41245;45.384;20.390;2023-07-08T12:55:10;768.40;1510.40
55365;DHT22;41245;45.384;20.390;2023-07-08T12:57:37;768.40;1510.40
55365;DHT22;41245;45.384;20.390;2023-07-08T13:00:06;768.50;1561.60
55365;DHT22;41245;45.384;20.390;2023-07-08T13:02:36;768.40;1459.20
55365;DHT22;41245;45.384;20.390;2023-07-08T13:05:04;768.50;1561.60
55365;DHT22;41245;45.384;20.390;2023-07-08T13:07:37;768.60;1484.80
55365;DHT22;41245;45.384;20.390;2023-07-08T13:10:13;768.60;1510.40
55365;DHT22;41245;45.384;20.390;2023-07-08T13:12:41;768.50;1536.00
55365;DHT22;41245;45.384;20.390;2023-07-08T13:15:14;768.40;1510.40
55365;DHT22;41245;45.384;20.390;2023-07-08T13:17:42;768.50;1561.60
55365;DHT22;41245;45.384;20.390;2023-07-08T13:20:14;768.30;1561.60
55365;DHT22;41245;45.384;20.390;2023-07-08T13:22:42;768.50;1561.60
55365;DHT22;41245;45.384;20.390;2023-07-08T13:25:15;768.70;1638.40
55365;DHT22;41245;45.384;20.390;2023-07-08T13:27:41;768.70;1664.00
55365;DHT22;41245;45.384;20.390;2023-07-08T13:30:18;768.80;1561.60
55365;DHT22;41245;45.384;20.390;2023-07-08T13:32:44;768.70;1612.80
55365;DHT22;41245;45.384;20.390;2023-07-08T13:35:34;768.80;1612.80
55365;DHT22;41245;45.384;20.390;2023-07-08T13:38:01;768.70;1612.80
55365;DHT22;41245;45.384;20.390;2023-07-08T13:40:29;768.60;1536.00
55365;DHT22;41245;45.384;20.390;2023-07-08T13:42:55;768.50;1561.60
55365;DHT22;41245;45.384;20.390;2023-07-08T13:45:32;768.40;1510.40
55365;DHT22;41245;45.384;20.390;2023-07-08T13:48:18;768.50;1510.40
55365;DHT22;41245;45.384;20.390;2023-07-08T13:58:46;768.80;1715.20
55365;DHT22;41245;45.384;20.390;2023-07-08T14:01:25;768.60;1561.60
55365;DHT22;41245;45.384;20.390;2023-07-08T14:03:53;768.80;1612.80
55365;DHT22;41245;45.384;20.390;2023-07-08T14:06:23;768.60;1536.00
55365;DHT22;41245;45.384;20.390;2023-07-08T14:08:53;768.70;1510.40
55365;DHT22;41245;45.384;20.390;2023-07-08T14:11:19;768.80;1561.60
55365;DHT22;41245;45.384;20.390;2023-07-08T14:13:45;768.70;1433.60
55365;DHT22;41245;45.384;20.390;2023-07-08T14:16:25;768.80;1459.20
55365;DHT22;41245;45.384;20.390;2023-07-08T14:18:56;768.60;1510.40
55365;DHT22;41245;45.384;20.390;2023-07-08T14:21:22;768.80;1587.20
55365;DHT22;41245;45.384;20.390;2023-07-08T14:23:48;768.50;1612.80
55365;DHT22;41245;45.384;20.390;2023-07-08T14:26:14;768.90;1612.80
55365;DHT22;41245;45.384;20.390;2023-07-08T14:28:40;793.60;1587.20
55365;DHT22;41245;45.384;20.390;2023-07-08T14:31:13;793.60;1510.40
55365;DHT22;41245;45.384;20.390;2023-07-08T14:33:40;793.70;1587.20
55365;DHT22;41245;45.384;20.390;2023-07-08T14:36:10;793.70;1561.60
55365;DHT22;41245;45.384;20.390;2023-07-08T14:38:37;793.70;1612.80
55365;DHT22;41245;45.384;20.390;2023-07-08T14:41:03;793.70;1664.00
55365;DHT22;41245;45.384;20.390;2023-07-08T14:43:31;793.70;1587.20
55365;DHT22;41245;45.384;20.390;2023-07-08T14:46:01;768.80;1612.80
55365;DHT22;41245;45.384;20.390;2023-07-08T14:48:28;768.70;1561.60
55365;DHT22;41245;45.384;20.390;2023-07-08T14:50:54;793.60;1638.40
55365;DHT22;41245;45.384;20.390;2023-07-08T14:53:20;793.60;1561.60
55365;DHT22;41245;45.384;20.390;2023-07-08T14:55:48;793.60;1510.40
55365;DHT22;41245;45.384;20.390;2023-07-08T14:58:28;793.60;1587.20
55365;DHT22;41245;45.384;20.390;2023-07-08T15:00:56;768.90;1638.40
55365;DHT22;41245;45.384;20.390;2023-07-08T15:03:23;768.70;1510.40
55365;DHT22;41245;45.384;20.390;2023-07-08T15:05:49;768.50;1484.80
55365;DHT22;41245;45.384;20.390;2023-07-08T15:08:15;768.60;1484.80
55365;DHT22;41245;45.384;20.390;2023-07-08T15:10:45;768.70;1484.80
55365;DHT22;41245;45.384;20.390;2023-07-08T15:13:12;768.80;1433.60
55365;DHT22;41245;45.384;20.390;2023-07-08T15:15:38;768.70;1433.60
55365;DHT22;41245;45.384;20.390;2023-07-08T15:18:12;768.70;1484.80
55365;DHT22;41245;45.384;20.390;2023-07-08T15:20:39;768.70;1459.20
55365;DHT22;41245;45.384;20.390;2023-07-08T15:23:05;768.60;1536.00
55365;DHT22;41245;45.384;20.390;2023-07-08T15:25:31;768.70;1433.60
55365;DHT22;41245;45.384;20.390;2023-07-08T15:27:59;768.80;1664.00
55365;DHT22;41245;45.384;20.390;2023-07-08T15:30:28;768.60;1612.80
55365;DHT22;41245;45.384;20.390;2023-07-08T15:32:55;768.60;1433.60
55365;DHT22;41245;45.384;20.390;2023-07-08T15:35:24;768.50;1484.80
55365;DHT22;41245;45.384;20.390;2023-07-08T15:37:50;768.40;1433.60
55365;DHT22;41245;45.384;20.390;2023-07-08T15:40:18;768.40;1561.60
55365;DHT22;41245;45.384;20.390;2023-07-08T15:42:46;768.40;1433.60
55365;DHT22;41245;45.384;20.390;2023-07-08T15:45:33;768.40;1459.20
55365;DHT22;41245;45.384;20.390;2023-07-08T15:47:59;768.30;1484.80
55365;DHT22;41245;45.384;20.390;2023-07-08T15:50:26;768.30;1459.20
55365;DHT22;41245;45.384;20.390;2023-07-08T15:52:53;768.20;1408.00
55365;DHT22;41245;45.384;20.390;2023-07-08T15:55:28;768.30;1510.40
55365;DHT22;41245;45.384;20.390;2023-07-08T15:57:57;768.30;1459.20
55365;DHT22;41245;45.384;20.390;2023-07-08T16:00:27;768.30;1536.00
55365;DHT22;41245;45.384;20.390;2023-07-08T16:02:56;768.30;1740.80
55365;DHT22;41245;45.384;20.390;2023-07-08T16:05:23;768.30;1740.80
55365;DHT22;41245;45.384;20.390;2023-07-08T16:07:51;768.30;1664.00
55365;DHT22;41245;45.384;20.390;2023-07-08T16:10:18;768.30;1459.20
55365;DHT22;41245;45.384;20.390;2023-07-08T16:12:44;768.30;1715.20
55365;DHT22;41245;45.384;20.390;2023-07-08T16:15:28;768.30;1612.80
55365;DHT22;41245;45.384;20.390;2023-07-08T16:17:54;768.30;1715.20
55365;DHT22;41245;45.384;20.390;2023-07-08T16:20:22;768.30;1612.80
55365;DHT22;41245;45.384;20.390;2023-07-08T16:22:48;768.30;1664.00
55365;DHT22;41245;45.384;20.390;2023-07-08T16:25:16;768.30;1587.20
55365;DHT22;41245;45.384;20.390;2023-07-08T16:27:47;768.40;1715.20
55365;DHT22;41245;45.384;20.390;2023-07-08T16:30:19;768.50;1433.60
55365;DHT22;41245;45.384;20.390;2023-07-08T16:32:46;768.40;1459.20
55365;DHT22;41245;45.384;20.390;2023-07-08T16:35:14;768.40;1433.60
55365;DHT22;41245;45.384;20.390;2023-07-08T16:37:40;768.30;1536.00
55365;DHT22;41245;45.384;20.390;2023-07-08T16:40:10;768.10;1433.60
55365;DHT22;41245;45.384;20.390;2023-07-08T16:42:39;768.10;1408.00
55365;DHT22;41245;45.384;20.390;2023-07-08T16:45:12;768.10;1408.00
55365;DHT22;41245;45.384;20.390;2023-07-08T16:47:38;768.10;1459.20
55365;DHT22;41245;45.384;20.390;2023-07-08T16:50:04;768.10;1459.20
55365;DHT22;41245;45.384;20.390;2023-07-08T16:52:30;768.20;1408.00
55365;DHT22;41245;45.384;20.390;2023-07-08T16:54:58;768.10;1408.00
55365;DHT22;41245;45.384;20.390;2023-07-08T16:57:24;768.10;1382.40
55365;DHT22;41245;45.384;20.390;2023-07-08T16:59:52;768.00;1459.20
55365;DHT22;41245;45.384;20.390;2023-07-08T17:02:18;743.30;1408.00
55365;DHT22;41245;45.384;20.390;2023-07-08T17:04:47;743.20;1356.80
55365;DHT22;41245;45.384;20.390;2023-07-08T17:07:16;743.20;1433.60
55365;DHT22;41245;45.384;20.390;2023-07-08T17:09:42;743.20;1459.20
55365;DHT22;41245;45.384;20.390;2023-07-08T17:12:08;743.00;1510.40
55365;DHT22;41245;45.384;20.390;2023-07-08T17:14:35;742.90;1356.80
55365;DHT22;41245;45.384;20.390;2023-07-08T17:17:02;742.80;1280.00
55365;DHT22;41245;45.384;20.390;2023-07-08T17:19:28;742.60;1280.00
55365;DHT22;41245;45.384;20.390;2023-07-08T17:21:54;742.60;1382.40
55365;DHT22;41245;45.384;20.390;2023-07-08T17:24:20;742.50;1382.40
55365;DHT22;41245;45.384;20.390;2023-07-08T17:26:49;742.50;1280.00
55365;DHT22;41245;45.384;20.390;2023-07-08T17:29:15;742.40;1254.40
55365;DHT22;41245;45.384;20.390;2023-07-08T17:31:43;742.40;1203.20
55365;DHT22;41245;45.384;20.390;2023-07-08T17:34:19;742.40;1331.20
55365;DHT22;41245;45.384;20.390;2023-07-08T17:36:46;717.60;1152.00
55365;DHT22;41245;45.384;20.390;2023-07-08T17:39:12;717.50;1152.00
55365;DHT22;41245;45.384;20.390;2023-07-08T17:41:38;717.40;1177.60
55365;DHT22;41245;45.384;20.390;2023-07-08T17:44:05;717.30;1126.40
55365;DHT22;41245;45.384;20.390;2023-07-08T17:46:31;717.20;1177.60
55365;DHT22;41245;45.384;20.390;2023-07-08T17:48:58;717.20;1100.80
55365;DHT22;41245;45.384;20.390;2023-07-08T17:51:25;717.10;1254.40
55365;DHT22;41245;45.384;20.390;2023-07-08T17:53:52;716.90;1280.00
55365;DHT22;41245;45.384;20.390;2023-07-08T17:56:36;716.90;1152.00
55365;DHT22;41245;45.384;20.390;2023-07-08T17:59:04;692.10;1152.00
55365;DHT22;41245;45.384;20.390;2023-07-08T18:01:31;692.00;1024.00
55365;DHT22;41245;45.384;20.390;2023-07-08T18:03:57;691.80;998.40
55365;DHT22;41245;45.384;20.390;2023-07-08T18:06:22;691.70;998.40
55365;DHT22;41245;45.384;20.390;2023-07-08T18:08:49;691.70;1075.20
55365;DHT22;41245;45.384;20.390;2023-07-08T18:11:18;691.60;1024.00
55365;DHT22;41245;45.384;20.390;2023-07-08T18:13:45;691.50;896.00
55365;DHT22;41245;45.384;20.390;2023-07-08T18:16:12;691.40;870.40
55365;DHT22;41245;45.384;20.390;2023-07-08T18:18:38;691.30;921.60
55365;DHT22;41245;45.384;20.390;2023-07-08T18:21:23;691.20;921.60
55365;DHT22;41245;45.384;20.390;2023-07-08T18:23:51;666.40;998.40
55365;DHT22;41245;45.384;20.390;2023-07-08T18:26:25;666.40;1100.80
55365;DHT22;41245;45.384;20.390;2023-07-08T18:28:51;666.30;870.40
55365;DHT22;41245;45.384;20.390;2023-07-08T18:31:21;666.20;870.40
55365;DHT22;41245;45.384;20.390;2023-07-08T18:33:48;666.00;870.40
55365;DHT22;41245;45.384;20.390;2023-07-08T18:36:15;665.90;896.00
55365;DHT22;41245;45.384;20.390;2023-07-08T18:38:41;665.90;1100.80
55365;DHT22;41245;45.384;20.390;2023-07-08T18:41:17;665.80;1049.60
55365;DHT22;41245;45.384;20.390;2023-07-08T18:43:43;665.60;1049.60
55365;DHT22;41245;45.384;20.390;2023-07-08T18:46:14;665.60;1049.60
55365;DHT22;41245;45.384;20.390;2023-07-08T18:48:40;640.90;1024.00
55365;DHT22;41245;45.384;20.390;2023-07-08T18:51:42;640.80;998.40
55365;DHT22;41245;45.384;20.390;2023-07-08T18:54:19;640.60;896.00
55365;DHT22;41245;45.384;20.390;2023-07-08T18:56:45;640.50;896.00
55365;DHT22;41245;45.384;20.390;2023-07-08T20:03:16;614.70;691.20
55365;DHT22;41245;45.384;20.390;2023-07-08T20:05:42;614.60;640.00
55365;DHT22;41245;45.384;20.390;2023-07-08T20:10:47;589.70;460.80
55365;DHT22;41245;45.384;20.390;2023-07-08T20:13:25;589.60;537.60
55365;DHT22;41245;45.384;20.390;2023-07-08T20:15:51;589.60;409.60
55365;DHT22;41245;45.384;20.390;2023-07-08T20:18:23;589.50;384.00
55365;DHT22;41245;45.384;20.390;2023-07-08T20:20:51;589.40;409.60
55365;DHT22;41245;45.384;20.390;2023-07-08T20:23:18;589.40;435.20
55365;DHT22;41245;45.384;20.390;2023-07-08T20:25:44;589.40;256.00
55365;DHT22;41245;45.384;20.390;2023-07-08T20:28:14;589.40;384.00
55365;DHT22;41245;45.384;20.390;2023-07-08T20:30:41;589.20;435.20
55365;DHT22;41245;45.384;20.390;2023-07-08T20:33:12;589.30;358.40
55365;DHT22;41245;45.384;20.390;2023-07-08T20:35:39;589.20;409.60
55365;DHT22;41245;45.384;20.390;2023-07-08T20:38:10;589.20;486.40
55365;DHT22;41245;45.384;20.390;2023-07-08T20:40:36;589.10;460.80
55365;DHT22;41245;45.384;20.390;2023-07-08T20:43:15;589.10;384.00
55365;DHT22;41245;45.384;20.390;2023-07-08T20:45:44;589.00;358.40
55365;DHT22;41245;45.384;20.390;2023-07-08T20:48:31;589.00;332.80
55365;DHT22;41245;45.384;20.390;2023-07-08T20:50:58;589.00;358.40
55365;DHT22;41245;45.384;20.390;2023-07-08T20:58:22;589.10;435.20
55365;DHT22;41245;45.384;20.390;2023-07-08T21:00:48;588.90;179.20
55365;DHT22;41245;45.384;20.390;2023-07-08T21:05:43;589.00;128.00
55365;DHT22;41245;45.384;20.390;2023-07-08T21:08:22;588.80;230.40
55365;DHT22;41245;45.384;20.390;2023-07-08T21:10:53;588.80;128.00
55365;DHT22;41245;45.384;20.390;2023-07-08T21:13:20;588.80;204.80
55365;DHT22;41245;45.384;20.390;2023-07-08T21:18:15;564.10;128.00
55365;DHT22;41245;45.384;20.390;2023-07-08T21:20:41;563.90;128.00
55365;DHT22;41245;45.384;20.390;2023-07-08T21:23:09;563.90;128.00
55365;DHT22;41245;45.384;20.390;2023-07-08T21:25:35;563.80;230.40
55365;DHT22;41245;45.384;20.390;2023-07-08T21:28:03;563.80;179.20
55365;DHT22;41245;45.384;20.390;2023-07-08T21:30:29;563.50;153.60
55365;DHT22;41245;45.384;20.390;2023-07-08T21:32:55;563.80;204.80
55365;DHT22;41245;45.384;20.390;2023-07-08T21:35:26;563.60;128.00
55365;DHT22;41245;45.384;20.390;2023-07-08T21:38:00;563.60;153.60
55365;DHT22;41245;45.384;20.390;2023-07-08T21:40:32;563.40;128.00
55365;DHT22;41245;45.384;20.390;2023-07-08T21:42:59;563.40;128.00
55365;DHT22;41245;45.384;20.390;2023-07-08T21:45:34;563.50;153.60
55365;DHT22;41245;45.384;20.390;2023-07-08T21:48:00;563.30;128.00
